createdAt,value
2019-05-13T00:02:21.297Z,99.99
2019-05-13T00:07:16.841Z,99.99
2019-05-13T00:12:14.007Z,99.99
2019-05-13T00:17:09.421Z,99.99
2019-05-13T00:22:06.039Z,99.99
2019-05-13T00:27:03.846Z,99.99
2019-05-13T00:31:59.871Z,99.99
2019-05-13T00:37:07.841Z,99.99
2019-05-13T00:41:54.482Z,99.99
2019-05-13T00:46:50.188Z,99.99
2019-05-13T00:51:45.796Z,99.99
2019-05-13T00:56:43.585Z,99.99
2019-05-13T01:01:38.502Z,99.99
2019-05-13T01:06:34.330Z,99.99
2019-05-13T01:11:30.180Z,99.99
2019-05-13T01:16:26.081Z,99.99
2019-05-13T01:21:23.852Z,99.99
2019-05-13T01:26:19.633Z,99.99
2019-05-13T01:31:15.288Z,99.99
2019-05-13T01:36:10.772Z,99.99
2019-05-13T01:41:07.906Z,99.99
2019-05-13T01:46:04.474Z,99.99
2019-05-13T01:50:59.922Z,99.99
2019-05-13T01:55:55.875Z,99.99
2019-05-13T02:00:54.902Z,99.99
2019-05-13T02:05:50.054Z,99.99
2019-05-13T02:10:45.657Z,99.99
2019-05-13T02:15:41.411Z,99.99
2019-05-13T02:20:38.137Z,99.99
2019-05-13T02:25:34.058Z,99.99
2019-05-13T02:30:30.541Z,99.99
2019-05-13T02:35:26.173Z,99.99
2019-05-13T02:40:22.746Z,99.99
2019-05-13T02:45:18.287Z,99.99
2019-05-13T02:50:13.903Z,99.99
2019-05-13T02:55:12.377Z,99.99
2019-05-13T03:00:07.461Z,99.99
2019-05-13T03:05:03.517Z,99.99
2019-05-13T03:09:59.208Z,99.99
2019-05-13T03:14:55.869Z,99.99
2019-05-13T03:19:52.951Z,99.99
2019-05-13T03:24:52.152Z,99.99
2019-05-13T03:29:46.826Z,99.99
2019-05-13T03:34:45.631Z,99.99
2019-05-13T03:39:43.443Z,99.99
2019-05-13T03:44:42.601Z,99.99
2019-05-13T03:49:37.151Z,99.99
2019-05-13T03:54:33.657Z,99.99
2019-05-13T03:59:32.910Z,99.99
2019-05-13T04:04:28.293Z,99.99
2019-05-13T04:09:31.044Z,99.99
2019-05-13T04:14:23.525Z,99.99
2019-05-13T04:19:22.939Z,99.99
2019-05-13T04:24:17.802Z,99.99
2019-05-13T04:29:13.764Z,99.99
2019-05-13T04:34:12.402Z,99.99
2019-05-13T04:39:08.540Z,99.99
2019-05-13T04:44:06.523Z,99.99
2019-05-13T04:49:03.305Z,99.98
2019-05-13T04:53:58.608Z,99.99
2019-05-13T04:58:54.105Z,99.99
2019-05-13T05:03:52.788Z,99.99
2019-05-13T05:08:48.219Z,99.99
2019-05-13T05:13:44.821Z,99.99
2019-05-13T05:18:42.212Z,99.99
2019-05-13T05:23:39.031Z,99.99
2019-05-13T05:28:34.817Z,99.99
2019-05-13T05:33:31.914Z,99.99
2019-05-13T05:38:28.294Z,99.99
2019-05-13T05:43:25.459Z,99.99
2019-05-13T05:48:22.640Z,99.99
2019-05-13T05:53:18.648Z,99.99
2019-05-13T05:58:14.376Z,99.99
2019-05-13T06:03:13.756Z,99.99
2019-05-13T06:08:11.274Z,99.99
2019-05-13T06:13:06.463Z,99.99
2019-05-13T06:18:02.338Z,99.99
2019-05-13T06:22:57.779Z,99.99
2019-05-13T06:27:53.909Z,99.99
2019-05-13T06:32:49.455Z,99.99
2019-05-13T06:37:45.902Z,99.99
2019-05-13T06:42:42.736Z,99.99
2019-05-13T06:47:41.304Z,99.99
2019-05-13T06:52:36.661Z,99.99
2019-05-13T06:57:33.772Z,99.99
2019-05-13T07:02:31.844Z,99.99
2019-05-13T07:07:28.482Z,99.99
2019-05-13T07:12:23.893Z,99.99
2019-05-13T07:17:22.285Z,97.93
2019-05-13T07:22:17.625Z,98.13
2019-05-13T07:27:14.147Z,95.08
2019-05-13T07:32:11.992Z,95.17
2019-05-13T07:37:07.562Z,93.98
2019-05-13T07:42:05.916Z,90.46
2019-05-13T07:47:03.613Z,89.32
2019-05-13T07:52:02.048Z,87.17
2019-05-13T07:57:01.865Z,79.57
2019-05-13T08:02:02.173Z,74.21
2019-05-13T08:07:01.887Z,74.02
2019-05-13T08:12:06.485Z,71.70
2019-05-13T08:17:02.292Z,68.20
2019-05-13T08:22:01.964Z,66.64
2019-05-13T08:27:01.631Z,63.06
2019-05-13T08:31:57.289Z,59.43
2019-05-13T08:36:53.658Z,61.44
2019-05-13T08:41:51.537Z,60.58
2019-05-13T08:46:47.125Z,59.59
2019-05-13T08:51:42.761Z,54.45
2019-05-13T08:56:38.280Z,50.12
2019-05-13T09:01:33.023Z,52.96
2019-05-13T09:06:31.265Z,52.32
2019-05-13T09:11:24.930Z,50.21
2019-05-13T09:16:21.601Z,50.21
2019-05-13T09:21:22.291Z,52.80
2019-05-13T09:26:18.255Z,45.03
2019-05-13T09:31:14.260Z,43.02
2019-05-13T09:36:12.538Z,46.39
2019-05-13T09:41:08.622Z,44.13
2019-05-13T09:46:04.880Z,45.48
2019-05-13T09:51:02.520Z,41.91
2019-05-13T09:55:58.104Z,41.07
2019-05-13T10:00:54.001Z,40.94
2019-05-13T10:05:51.789Z,40.12
2019-05-13T10:10:47.741Z,40.12
2019-05-13T10:15:48.517Z,43.60
2019-05-13T10:20:44.124Z,43.49
2019-05-13T10:25:39.622Z,46.05
2019-05-13T10:30:37.020Z,45.21
2019-05-13T10:35:33.146Z,41.46
2019-05-13T10:40:31.956Z,44.43
2019-05-13T10:45:27.981Z,42.24
2019-05-13T10:50:27.670Z,43.59
2019-05-13T10:55:22.989Z,43.85
2019-05-13T11:00:19.106Z,41.74
2019-05-13T11:05:15.210Z,41.09
2019-05-13T11:10:13.547Z,38.22
2019-05-13T11:15:09.821Z,35.78
2019-05-13T11:20:07.844Z,34.81
2019-05-13T11:25:04.143Z,34.61
2019-05-13T11:30:05.440Z,33.48
2019-05-13T11:35:01.923Z,34.42
2019-05-13T11:39:57.742Z,34.79
2019-05-13T11:44:53.838Z,34.69
2019-05-13T11:49:52.218Z,33.56
2019-05-13T11:54:47.472Z,33.77
2019-05-13T11:59:43.908Z,33.09
2019-05-13T12:04:43.055Z,33.50
2019-05-13T12:09:38.970Z,34.25
2019-05-13T12:14:48.437Z,35.57
2019-05-13T12:19:34.910Z,35.28
2019-05-13T12:24:30.713Z,34.55
2019-05-13T12:29:27.243Z,35.57
2019-05-13T12:34:23.659Z,36.24
2019-05-13T12:39:18.926Z,35.38
2019-05-13T12:44:13.254Z,35.84
2019-05-13T12:49:07.262Z,37.01
2019-05-13T12:54:04.184Z,34.71
2019-05-13T12:59:02.947Z,35.46
2019-05-13T13:03:58.538Z,35.40
2019-05-13T13:08:55.390Z,34.25
2019-05-13T13:18:52.701Z,33.01
2019-05-13T13:23:48.926Z,32.25
2019-05-13T13:28:44.631Z,32.64
2019-05-13T13:33:43.412Z,33.88
2019-05-13T13:38:42.702Z,33.21
2019-05-13T13:43:42.197Z,34.63
2019-05-13T13:48:38.004Z,35.21
2019-05-13T13:53:33.573Z,34.92
2019-05-13T13:58:29.045Z,34.23
2019-05-13T14:03:24.805Z,35.36
2019-05-13T14:07:13.009Z,32.06
2019-05-13T14:08:21.710Z,36.71
2019-05-13T14:13:17.210Z,35.65
2019-05-13T14:18:13.721Z,35.65
2019-05-13T14:23:12.422Z,37.65
2019-05-13T14:28:07.066Z,37.93
2019-05-13T14:33:02.544Z,38.70
2019-05-13T14:37:59.332Z,38.12
2019-05-13T14:42:54.913Z,37.65
2019-05-13T14:47:50.767Z,37.24
2019-05-13T14:52:46.364Z,37.92
2019-05-13T14:57:42.737Z,37.84
2019-05-13T15:02:38.985Z,37.65
2019-05-13T15:07:34.896Z,38.60
2019-05-13T15:12:32.257Z,37.65
2019-05-13T15:17:27.913Z,36.02
2019-05-13T15:22:23.723Z,36.29
2019-05-13T15:27:22.273Z,37.82
2019-05-13T15:32:17.248Z,38.01
2019-05-13T15:37:13.575Z,38.68
2019-05-13T15:42:11.847Z,37.84
2019-05-13T15:47:22.217Z,37.16
2019-05-13T15:52:08.101Z,36.40
2019-05-13T15:57:03.331Z,37.93
2019-05-13T16:02:02.058Z,39.56
2019-05-13T16:06:57.567Z,40.81
2019-05-13T16:11:54.081Z,41.94
2019-05-13T16:16:50.557Z,43.27
2019-05-13T16:21:46.785Z,43.39
2019-05-13T16:26:43.060Z,41.94
2019-05-13T16:31:41.347Z,43.76
2019-05-13T16:36:36.772Z,44.52
2019-05-13T16:41:33.549Z,45.76
2019-05-13T16:46:31.415Z,44.81
2019-05-13T16:51:26.730Z,45.59
2019-05-13T16:56:27.696Z,44.81
2019-05-13T17:01:22.022Z,45.86
2019-05-13T17:06:17.529Z,45.29
2019-05-13T17:11:13.345Z,46.72
2019-05-13T17:16:10.738Z,46.62
2019-05-13T17:21:06.413Z,46.44
2019-05-13T17:26:03.309Z,46.51
2019-05-13T17:30:58.888Z,47.94
2019-05-13T17:35:54.580Z,47.94
2019-05-13T17:40:52.944Z,46.70
2019-05-13T17:45:49.419Z,47.56
2019-05-13T17:50:45.569Z,48.42
2019-05-13T17:55:41.469Z,47.92
2019-05-13T18:00:37.218Z,48.68
2019-05-13T18:05:33.144Z,49.26
2019-05-13T18:10:31.781Z,48.97
2019-05-13T18:15:27.431Z,50.41
2019-05-13T18:20:23.293Z,51.07
2019-05-13T18:25:22.163Z,51.05
2019-05-13T18:35:16.902Z,52.67
2019-05-13T18:40:12.707Z,53.63
2019-05-13T18:45:08.547Z,53.99
2019-05-13T18:50:04.159Z,54.85
2019-05-13T18:55:02.117Z,55.52
2019-05-13T18:59:57.577Z,55.71
2019-05-13T19:04:53.162Z,55.49
2019-05-13T19:09:48.947Z,56.16
2019-05-13T19:14:44.602Z,56.92
2019-05-13T19:19:42.063Z,57.97
2019-05-13T19:24:37.454Z,58.54
2019-05-13T19:29:33.595Z,60.04
2019-05-13T19:34:29.166Z,59.66
2019-05-13T19:39:25.028Z,60.33
2019-05-13T19:44:22.069Z,60.87
2019-05-13T19:49:29.779Z,61.63
2019-05-13T19:54:17.197Z,62.40
2019-05-13T19:59:13.005Z,62.97
2019-05-13T20:04:08.982Z,62.68
2019-05-13T20:09:04.803Z,63.92
2019-05-13T20:14:01.553Z,64.18
2019-05-13T20:18:58.548Z,64.56
2019-05-13T20:23:54.059Z,64.18
2019-05-13T20:28:51.331Z,64.85
2019-05-13T20:33:46.830Z,65.00
2019-05-13T20:38:42.977Z,65.96
2019-05-13T20:43:38.776Z,66.44
2019-05-13T20:48:35.510Z,67.48
2019-05-13T20:53:31.162Z,67.96
2019-05-13T20:58:26.955Z,68.72
2019-05-13T21:03:22.561Z,68.88
2019-05-13T21:08:18.357Z,69.45
2019-05-13T21:13:15.089Z,70.59
2019-05-13T21:18:11.455Z,71.36
2019-05-13T21:23:06.732Z,72.50
2019-05-13T21:28:03.371Z,73.70
2019-05-13T21:32:58.791Z,74.56
2019-05-13T21:37:54.516Z,75.42
2019-05-13T21:42:52.453Z,76.08
2019-05-13T21:47:47.815Z,77.51
2019-05-13T21:52:43.674Z,78.61
2019-05-13T21:57:41.455Z,80.61
2019-05-13T22:02:36.681Z,82.80
2019-05-13T22:07:33.183Z,83.65
2019-05-13T22:12:28.892Z,84.00
2019-05-13T22:17:25.372Z,85.47
2019-05-13T22:22:22.093Z,86.18
2019-05-13T22:27:17.821Z,87.23
2019-05-13T22:32:14.418Z,87.42
2019-05-13T22:37:11.691Z,88.75
2019-05-13T22:42:06.664Z,89.23
2019-05-13T22:47:02.755Z,89.80
2019-05-13T22:51:58.541Z,91.37
2019-05-13T22:56:54.220Z,91.47
2019-05-13T23:01:52.221Z,92.70
2019-05-13T23:06:47.140Z,92.99
2019-05-13T23:11:43.728Z,94.03
2019-05-13T23:16:39.404Z,93.75
2019-05-13T23:21:35.923Z,93.84
2019-05-13T23:26:32.819Z,94.70
2019-05-13T23:31:28.083Z,95.08
2019-05-13T23:36:23.688Z,96.50
2019-05-13T23:41:21.659Z,97.60
2019-05-13T23:46:16.865Z,97.97
2019-05-13T23:51:13.074Z,98.36
2019-05-13T23:56:11.110Z,98.55
